Time;durP1;ratioP1;P1;durP2;ratioP2;P2;SDS_P1;SDS_P2;PMS_P1;PMS_P2;Temp;Humidity;BMP_temperature;BMP_pressure;BME280_temperature;BME280_humidity;BME280_pressure;Samples;Min_cycle;Max_cycle;Signal;HPM_P1;HPM_P2
2022/01/25 00:08:26;;;;;;;31.10;20.50;;;;;;;0.24;100.00;97769.41;5028711;27;102462;-61
2022/01/25 00:25:20;;;;;;;36.80;21.83;;;;;;;0.48;100.00;97775.63;5031631;27;103374;-61
2022/01/25 00:28:19;;;;;;;32.17;20.13;;;;;;;0.24;100.00;97777.25;5027469;28;101840;-61
2022/01/25 00:30:59;;;;;;;32.23;20.90;;;;;;;0.26;100.00;97778.75;5030626;27;102644;-61
2022/01/25 00:33:26;;;;;;;31.17;20.77;;;;;;;0.30;100.00;97771.41;5029895;28;103739;-61
2022/01/25 00:35:55;;;;;;;28.87;20.00;;;;;;;0.35;100.00;97771.78;5030510;28;101773;-61
2022/01/25 00:38:48;;;;;;;30.77;20.50;;;;;;;0.43;100.00;97777.03;5031990;28;102769;-61
2022/01/25 00:41:16;;;;;;;32.80;21.03;;;;;;;0.43;100.00;97774.44;5029603;28;103836;-61
2022/01/25 00:43:44;;;;;;;32.60;21.73;;;;;;;0.41;100.00;97781.63;5031509;28;102024;-61
2022/01/25 00:46:12;;;;;;;33.27;21.10;;;;;;;0.48;100.00;97778.25;5031568;28;102511;-61
2022/01/25 00:48:56;;;;;;;32.60;20.83;;;;;;;0.45;100.00;97777.75;5034467;27;103390;-61
2022/01/25 00:51:57;;;;;;;34.37;21.60;;;;;;;0.46;100.00;97774.13;5031443;28;102506;-61
2022/01/25 00:54:31;;;;;;;32.73;20.70;;;;;;;0.41;100.00;97776.38;5029573;28;105566;-61
2022/01/25 00:56:59;;;;;;;33.60;22.33;;;;;;;0.41;100.00;97773.78;5031904;27;101702;-61
2022/01/25 00:59:32;;;;;;;36.53;23.40;;;;;;;0.42;100.00;97778.88;5030201;28;104168;-61
2022/01/25 01:02:04;;;;;;;29.37;21.10;;;;;;;0.36;100.00;97782.09;5030966;28;103266;-61
2022/01/25 01:04:32;;;;;;;35.93;22.20;;;;;;;0.30;100.00;97782.72;5031749;28;101848;-61
2022/01/25 01:07:06;;;;;;;31.77;20.07;;;;;;;0.37;100.00;97773.25;5029791;28;105184;-61
2022/01/25 01:09:43;;;;;;;30.93;21.03;;;;;;;0.40;100.00;97775.56;5031137;27;102475;-61
2022/01/25 01:12:17;;;;;;;33.83;21.00;;;;;;;0.35;100.00;97782.25;5034735;27;101865;-61
2022/01/25 01:31:28;;;;;;;30.40;19.73;;;;;;;0.39;100.00;97775.75;5026326;28;103020;-61
2022/01/25 01:45:29;;;;;;;33.17;20.23;;;;;;;-0.07;100.00;97771.63;5026011;28;105614;-61
2022/01/25 01:48:02;;;;;;;32.77;20.63;;;;;;;-0.07;100.00;97773.41;5029522;28;101798;-61
2022/01/25 01:50:32;;;;;;;30.80;20.03;;;;;;;-0.09;100.00;97767.53;5029590;28;105802;-61
2022/01/25 01:53:02;;;;;;;29.23;20.03;;;;;;;-0.09;100.00;97773.56;5028631;28;104375;-61
2022/01/25 01:55:31;;;;;;;32.97;21.03;;;;;;;-0.17;100.00;97773.50;5030779;28;101925;-61
2022/01/25 01:58:06;;;;;;;32.53;20.17;;;;;;;-0.17;100.00;97775.28;5030491;28;102894;-61
2022/01/25 02:00:37;;;;;;;33.03;18.83;;;;;;;0.10;100.00;97773.41;5032123;28;101759;-61
2022/01/25 02:03:05;;;;;;;33.23;21.40;;;;;;;0.20;100.00;97778.53;5029153;28;104160;-61
2022/01/25 02:05:32;;;;;;;33.93;21.23;;;;;;;0.20;100.00;97781.97;5028776;28;105812;-61
2022/01/25 02:08:00;;;;;;;32.80;21.93;;;;;;;0.22;100.00;97777.41;5028509;28;101920;-61
2022/01/25 02:10:27;;;;;;;35.50;21.37;;;;;;;0.24;100.00;97785.09;5029941;28;102536;-61
2022/01/25 02:13:33;;;;;;;35.80;21.63;;;;;;;0.21;100.00;97785.41;5028458;28;105269;-61
2022/01/25 02:16:05;;;;;;;32.10;21.23;;;;;;;0.20;100.00;97775.91;5028864;28;101878;-61
2022/01/25 02:24:11;;;;;;;41.10;24.67;;;;;;;0.53;100.00;97770.75;5030688;27;102360;-59
2022/01/25 02:26:39;;;;;;;40.13;24.13;;;;;;;0.56;100.00;97769.63;5028183;28;105264;-59
2022/01/25 02:29:14;;;;;;;42.87;24.57;;;;;;;0.69;100.00;97763.00;5028865;28;102031;-61
2022/01/25 02:31:42;;;;;;;40.93;24.60;;;;;;;0.67;100.00;97771.97;5028455;28;105146;-61
2022/01/25 02:34:09;;;;;;;42.63;25.70;;;;;;;0.73;100.00;97768.72;5051361;27;105290;-61
2022/01/25 02:36:38;;;;;;;42.77;25.10;;;;;;;0.75;100.00;97772.00;5008836;28;101916;-61
2022/01/25 02:39:07;;;;;;;46.83;26.97;;;;;;;0.76;100.00;97771.03;5046830;27;105166;-61
2022/01/25 02:42:08;;;;;;;43.83;25.33;;;;;;;0.71;100.00;97771.50;5027929;28;103874;-61
2022/01/25 02:44:36;;;;;;;43.33;25.17;;;;;;;0.75;100.00;97774.63;5031843;28;101851;-61
2022/01/25 02:49:48;;;;;;;36.63;22.70;;;;;;;0.69;100.00;97764.78;5028355;28;101949;-61
2022/01/25 02:52:17;;;;;;;35.93;23.10;;;;;;;0.75;100.00;97764.16;5027506;27;105171;-61
2022/01/25 02:54:45;;;;;;;38.33;24.03;;;;;;;0.78;100.00;97769.09;5027938;28;104191;-61
2022/01/25 02:57:13;;;;;;;40.03;24.27;;;;;;;0.78;100.00;97761.25;5028125;28;102212;-61
2022/01/25 02:59:41;;;;;;;39.50;24.63;;;;;;;0.80;100.00;97759.28;5028430;28;105232;-61
2022/01/25 03:02:08;;;;;;;41.37;24.63;;;;;;;0.74;100.00;97757.28;5027527;28;103976;-61
2022/01/25 03:04:36;;;;;;;46.07;25.50;;;;;;;0.71;100.00;97757.63;5028056;28;101776;-61
2022/01/25 03:07:04;;;;;;;42.83;25.27;;;;;;;0.84;100.00;97758.81;5031221;28;105031;-61
2022/01/25 03:09:41;;;;;;;41.73;24.20;;;;;;;0.76;100.00;97763.16;5027871;28;102096;-61
2022/01/25 03:12:14;;;;;;;36.50;21.97;;;;;;;0.57;100.00;97766.03;5027831;28;105576;-61
2022/01/25 03:14:59;;;;;;;39.60;22.93;;;;;;;0.46;100.00;97769.75;5027422;28;103575;-61
2022/01/25 03:17:29;;;;;;;41.67;23.70;;;;;;;0.58;100.00;97765.88;5029551;28;101972;-61
2022/01/25 03:20:04;;;;;;;37.20;22.23;;;;;;;0.56;100.00;97759.97;5028380;28;105152;-61
2022/01/25 03:22:45;;;;;;;43.43;23.33;;;;;;;0.58;100.00;97754.56;5027274;28;105713;-61
2022/01/25 03:25:13;;;;;;;38.73;23.63;;;;;;;0.55;100.00;97762.75;5027680;28;101778;-61
2022/01/25 03:27:51;;;;;;;36.70;22.43;;;;;;;0.52;100.00;97756.03;5028027;28;104891;-61
2022/01/25 03:30:18;;;;;;;33.77;22.03;;;;;;;0.32;100.00;97753.75;5030828;28;105075;-61
2022/01/25 03:32:45;;;;;;;34.90;21.67;;;;;;;0.28;100.00;97749.81;5027942;28;105110;-61
2022/01/25 03:35:13;;;;;;;36.53;22.40;;;;;;;0.16;100.00;97748.41;5027197;28;104262;-61
2022/01/25 03:37:54;;;;;;;40.20;23.27;;;;;;;0.18;100.00;97756.94;5028097;28;101959;-61
2022/01/25 03:40:22;;;;;;;37.23;21.90;;;;;;;0.16;100.00;97757.09;5027680;28;105278;-61
2022/01/25 03:43:07;;;;;;;36.97;22.10;;;;;;;0.22;100.00;97750.44;5027259;28;105469;-61
2022/01/25 03:45:36;;;;;;;35.23;20.67;;;;;;;0.11;100.00;97761.16;5041486;27;102256;-61
2022/01/25 03:50:49;;;;;;;34.13;20.57;;;;;;;0.04;100.00;97754.88;5006201;28;104396;-61
2022/01/25 03:53:19;;;;;;;32.63;20.77;;;;;;;0.25;100.00;97750.13;5012432;28;101768;-61
2022/01/25 03:55:49;;;;;;;35.37;20.80;;;;;;;0.20;100.00;97742.75;5007234;28;105239;-61
2022/01/25 03:58:20;;;;;;;30.83;19.70;;;;;;;0.25;100.00;97747.50;5011292;28;102036;-61
2022/01/25 04:00:49;;;;;;;32.70;19.13;;;;;;;0.28;100.00;97752.44;5027602;28;105630;-61
2022/01/25 04:03:22;;;;;;;30.83;19.20;;;;;;;0.09;100.00;97758.69;5026972;28;104073;-61
2022/01/25 04:05:52;;;;;;;30.20;18.43;;;;;;;0.15;100.00;97759.84;5031228;28;101743;-61
2022/01/25 04:08:20;;;;;;;27.53;17.83;;;;;;;0.18;100.00;97749.91;5030616;28;105092;-61
2022/01/25 04:10:52;;;;;;;29.67;18.97;;;;;;;0.16;100.00;97745.78;5030384;28;105791;-61
2022/01/25 04:13:19;;;;;;;29.43;19.07;;;;;;;0.00;100.00;97743.91;5035398;28;102199;-61
2022/01/25 04:15:48;;;;;;;27.33;18.33;;;;;;;0.04;100.00;97737.41;5030514;28;105854;-61
2022/01/25 04:18:30;;;;;;;30.73;18.53;;;;;;;-0.10;100.00;97739.75;5030402;28;101781;-61
2022/01/25 04:21:07;;;;;;;28.37;17.20;;;;;;;0.01;100.00;97742.91;5030965;28;103826;-61
2022/01/25 04:26:19;;;;;;;30.50;18.43;;;;;;;-0.05;100.00;97747.94;5030696;28;101749;-61
2022/01/25 04:28:50;;;;;;;30.43;18.83;;;;;;;0.14;100.00;97747.75;5030380;28;105289;-61
2022/01/25 04:31:19;;;;;;;30.23;19.13;;;;;;;0.00;100.00;97745.72;5030246;28;105026;-61
2022/01/25 04:34:06;;;;;;;30.40;18.07;;;;;;;-0.05;100.00;97745.34;5030599;28;101836;-61
2022/01/25 04:36:56;;;;;;;25.70;18.00;;;;;;;-0.11;100.00;97754.59;5033533;28;105297;-59
2022/01/25 04:49:00;;;;;;;26.97;16.93;;;;;;;-0.20;100.00;97739.00;4969602;28;101873;-59
2022/01/25 04:54:21;;;;;;;30.03;18.10;;;;;;;-0.36;100.00;97736.25;5009847;28;105703;-59
2022/01/25 04:56:55;;;;;;;31.97;18.30;;;;;;;-0.33;100.00;97743.78;5013868;28;102072;-59
2022/01/25 04:59:44;;;;;;;27.83;17.77;;;;;;;-0.39;100.00;97733.13;5030390;28;105506;-59
2022/01/25 05:02:15;;;;;;;30.30;18.27;;;;;;;-0.43;100.00;97737.81;5032883;28;105084;-59
2022/01/25 05:04:46;;;;;;;28.83;18.23;;;;;;;-0.39;100.00;97733.91;5030276;28;105095;-59
2022/01/25 05:07:26;;;;;;;28.50;17.63;;;;;;;-0.39;100.00;97733.91;5029389;28;105224;-59
2022/01/25 05:09:54;;;;;;;28.47;17.60;;;;;;;-0.38;100.00;97729.53;5029710;28;101873;-59
2022/01/25 05:12:34;;;;;;;30.77;17.33;;;;;;;-0.37;100.00;97734.59;5031553;27;102362;-59
2022/01/25 05:15:18;;;;;;;30.30;17.87;;;;;;;-0.38;100.00;97727.75;5030494;27;102619;-59
2022/01/25 05:23:39;;;;;;;31.23;17.90;;;;;;;-0.41;100.00;97730.66;5045601;27;104661;-60
2022/01/25 05:26:06;;;;;;;33.10;18.63;;;;;;;-0.27;100.00;97736.16;5044915;27;101927;-60
2022/01/25 05:28:40;;;;;;;31.50;19.03;;;;;;;-0.23;100.00;97744.50;5046299;27;102349;-60
2022/01/25 05:31:08;;;;;;;30.93;18.57;;;;;;;-0.16;100.00;97740.34;5058090;27;103883;-60
2022/01/25 05:33:34;;;;;;;31.37;19.23;;;;;;;-0.33;100.00;97727.28;5042957;27;101953;-60
2022/01/25 05:36:03;;;;;;;30.50;18.43;;;;;;;-0.29;100.00;97732.06;5044794;27;103618;-60
2022/01/25 05:38:34;;;;;;;30.17;18.73;;;;;;;-0.44;100.00;97730.94;5045417;27;103343;-60
2022/01/25 05:41:06;;;;;;;34.03;19.20;;;;;;;-0.44;100.00;97730.13;5049516;27;101880;-60
2022/01/25 05:46:41;;;;;;;29.20;18.30;;;;;;;-0.56;100.00;97728.72;5045339;27;102030;-60
2022/01/25 05:49:09;;;;;;;27.50;16.57;;;;;;;-0.51;100.00;97732.50;5026041;28;102546;-59
2022/01/25 05:51:37;;;;;;;27.33;17.73;;;;;;;-0.48;100.00;97734.84;5039495;27;103026;-59
2022/01/25 05:54:04;;;;;;;29.67;17.50;;;;;;;-0.44;100.00;97724.91;5024281;28;101946;-59
2022/01/25 05:56:31;;;;;;;26.93;16.47;;;;;;;-0.36;100.00;97731.81;5037900;27;105555;-59
2022/01/25 05:59:07;;;;;;;27.73;16.60;;;;;;;-0.48;100.00;97734.84;5043883;27;105290;-60
2022/01/25 06:01:35;;;;;;;27.50;17.00;;;;;;;-0.61;100.00;97734.38;5044061;27;102134;-59
2022/01/25 06:04:02;;;;;;;29.47;16.53;;;;;;;-0.71;100.00;97736.22;5047332;27;105737;-59
2022/01/25 06:06:30;;;;;;;29.00;17.87;;;;;;;-0.66;100.00;97738.41;5043939;27;101939;-59
2022/01/25 06:09:00;;;;;;;27.47;16.37;;;;;;;-0.63;100.00;97738.94;5044356;27;105535;-59
2022/01/25 06:11:42;;;;;;;31.07;18.20;;;;;;;-0.72;100.00;97731.97;5043628;27;105425;-59
2022/01/25 06:14:09;;;;;;;34.17;18.17;;;;;;;-0.66;100.00;97728.75;5024079;28;102889;-59
2022/01/25 06:16:36;;;;;;;30.10;17.73;;;;;;;-0.71;100.00;97735.41;5039071;27;102894;-59
2022/01/25 06:19:04;;;;;;;32.90;19.10;;;;;;;-0.72;100.00;97729.34;5042425;27;103098;-59
2022/01/25 06:21:30;;;;;;;32.70;18.97;;;;;;;-0.61;100.00;97736.97;5043805;27;101970;-59
2022/01/25 06:23:57;;;;;;;34.07;19.77;;;;;;;-0.60;100.00;97737.81;5043588;27;105179;-59
2022/01/25 06:26:27;;;;;;;33.20;20.30;;;;;;;-0.55;100.00;97738.19;5047069;27;104669;-59
2022/01/25 06:28:56;;;;;;;33.47;19.50;;;;;;;-0.59;100.00;97729.84;5043814;27;104475;-59
2022/01/25 06:31:23;;;;;;;41.33;21.03;;;;;;;-0.62;100.00;97727.50;5034336;27;105854;-59
2022/01/25 06:33:50;;;;;;;39.23;20.67;;;;;;;-0.59;100.00;97731.63;5030199;28;101972;-59
2022/01/25 06:36:18;;;;;;;41.57;22.40;;;;;;;-0.60;100.00;97722.94;5029931;28;106207;-59
2022/01/25 06:38:50;;;;;;;40.57;21.73;;;;;;;-0.64;100.00;97734.69;5029641;28;105202;-59
2022/01/25 06:41:45;;;;;;;34.73;20.33;;;;;;;-0.66;100.00;97731.38;5030124;28;101858;-59
2022/01/25 06:44:12;;;;;;;33.53;19.30;;;;;;;-0.67;100.00;97734.97;5031313;28;102321;-59
2022/01/25 06:46:39;;;;;;;32.60;19.37;;;;;;;-0.82;100.00;97736.44;5029449;28;105004;-59
2022/01/25 06:49:16;;;;;;;36.40;19.90;;;;;;;-0.78;100.00;97736.97;5067739;27;101953;-59
2022/01/25 06:51:43;;;;;;;31.53;18.73;;;;;;;-0.89;100.00;97745.81;5029384;28;105587;-59
2022/01/25 06:54:11;;;;;;;31.73;17.97;;;;;;;-0.81;100.00;97748.53;5029926;28;102081;-59
2022/01/25 06:56:38;;;;;;;31.93;18.20;;;;;;;-0.87;100.00;97745.69;5029678;28;105412;-59
2022/01/25 06:59:15;;;;;;;35.90;19.07;;;;;;;-0.88;100.00;97737.03;5063433;27;105865;-58
2022/01/25 07:01:43;;;;;;;28.73;17.10;;;;;;;-1.00;100.00;97747.84;5029641;28;101895;-59
2022/01/25 07:04:10;;;;;;;29.33;17.33;;;;;;;-1.06;100.00;97749.22;5029402;28;105341;-59
2022/01/25 07:06:38;;;;;;;27.13;16.50;;;;;;;-1.11;100.00;97750.66;5029378;28;105600;-56
2022/01/25 07:09:11;;;;;;;26.93;16.57;;;;;;;-1.16;100.00;97747.66;5029642;28;102175;-59
2022/01/25 07:12:15;;;;;;;29.53;16.13;;;;;;;-1.23;100.00;97741.34;5032646;28;105337;-59
2022/01/25 07:14:44;;;;;;;26.93;15.37;;;;;;;-1.12;100.00;97743.75;5026535;28;103501;-59
2022/01/25 07:17:11;;;;;;;30.40;16.67;;;;;;;-1.29;100.00;97741.91;5029418;28;104990;-59
2022/01/25 07:19:38;;;;;;;29.60;16.47;;;;;;;-1.35;100.00;97742.50;5026531;28;104225;-59
2022/01/25 07:22:05;;;;;;;28.73;16.30;;;;;;;-1.28;100.00;97744.38;5014207;28;102114;-59
2022/01/25 07:24:33;;;;;;;32.50;16.73;;;;;;;-1.26;100.00;97741.66;5029463;28;105397;-59
2022/01/25 07:27:00;;;;;;;31.13;17.27;;;;;;;-1.29;100.00;97753.19;5028922;28;105885;-59
2022/01/25 07:29:40;;;;;;;31.10;16.57;;;;;;;-1.30;100.00;97746.34;5029189;28;101934;-59
2022/01/25 07:32:10;;;;;;;30.00;17.67;;;;;;;-1.21;100.00;97748.06;5046112;27;106993;-59
2022/01/25 07:34:37;;;;;;;29.43;16.77;;;;;;;-1.32;100.00;97745.63;5031856;27;101889;-59
2022/01/25 07:37:04;;;;;;;34.13;17.93;;;;;;;-1.15;100.00;97752.69;5028611;28;103952;-59
2022/01/25 07:39:32;;;;;;;32.07;17.00;;;;;;;-1.07;100.00;97751.97;5028396;28;105917;-59
2022/01/25 07:42:06;;;;;;;31.07;16.70;;;;;;;-1.04;100.00;97749.88;5028405;28;101857;-59
2022/01/25 07:44:44;;;;;;;28.03;15.80;;;;;;;-1.17;100.00;97746.81;5028932;28;104167;-59
2022/01/25 07:47:13;;;;;;;28.90;16.60;;;;;;;-1.15;100.00;97755.31;5028635;28;105429;-59
2022/01/25 07:49:41;;;;;;;29.97;17.23;;;;;;;-1.22;100.00;97758.66;5028751;28;101978;-60
2022/01/25 07:52:09;;;;;;;27.03;16.63;;;;;;;-1.21;100.00;97758.50;5029222;28;105854;-60
2022/01/25 07:54:36;;;;;;;27.63;16.40;;;;;;;-1.03;100.00;97754.16;5032465;28;103109;-59
2022/01/25 07:57:03;;;;;;;27.47;16.20;;;;;;;-1.02;100.00;97760.19;5029024;28;105344;-59
2022/01/25 08:00:15;;;;;;;25.63;14.70;;;;;;;-0.85;100.00;97755.03;5029625;28;103100;-59
2022/01/25 08:02:45;;;;;;;28.97;16.60;;;;;;;-0.74;100.00;97759.19;5028925;28;102045;-59
2022/01/25 08:05:14;;;;;;;30.47;17.03;;;;;;;-0.62;100.00;97751.00;5027989;28;105999;-59
2022/01/25 08:07:47;;;;;;;29.73;16.00;;;;;;;-0.55;100.00;97754.66;5028369;28;105782;-59
2022/01/25 08:10:14;;;;;;;28.47;16.33;;;;;;;-0.52;100.00;97738.72;5028614;28;101913;-60
2022/01/25 08:12:43;;;;;;;29.80;17.13;;;;;;;-0.40;100.00;97742.72;5028481;28;103755;-59
2022/01/25 08:15:12;;;;;;;29.67;16.50;;;;;;;-0.34;100.00;97741.31;5027743;28;105681;-60
2022/01/25 08:18:04;;;;;;;27.37;16.37;;;;;;;-0.26;100.00;97744.84;5031944;28;101917;-60
2022/01/25 08:20:32;;;;;;;27.37;16.73;;;;;;;-0.27;100.00;97741.38;5026469;28;105781;-62
2022/01/25 08:22:59;;;;;;;26.00;15.43;;;;;;;-0.09;100.00;97738.75;5028746;28;101931;-58
2022/01/25 08:25:28;;;;;;;25.40;14.83;;;;;;;-0.13;100.00;97746.09;5028068;28;104698;-59
2022/01/25 08:28:16;;;;;;;26.47;15.73;;;;;;;0.01;100.00;97735.06;5027506;28;106006;-59
2022/01/25 08:30:43;;;;;;;23.03;14.60;;;;;;;0.10;100.00;97738.56;5027625;28;102006;-59
2022/01/25 08:33:12;;;;;;;21.23;13.90;;;;;;;0.22;100.00;97724.28;5028150;28;105214;-59
2022/01/25 08:35:39;;;;;;;21.20;13.73;;;;;;;0.36;100.00;97732.38;5009531;28;102932;-59
2022/01/25 08:38:09;;;;;;;20.80;12.67;;;;;;;0.38;100.00;97729.59;5029130;27;101827;-59
2022/01/25 08:40:37;;;;;;;22.40;13.53;;;;;;;0.39;100.00;97731.25;5031173;28;105839;-59
2022/01/25 08:43:07;;;;;;;19.70;12.93;;;;;;;0.31;100.00;97728.56;5028412;28;102008;-59
2022/01/25 08:45:34;;;;;;;18.87;12.97;;;;;;;0.38;100.00;97737.44;5028285;28;105515;-59
2022/01/25 08:48:02;;;;;;;19.83;11.93;;;;;;;0.46;100.00;97742.72;5027755;28;104311;-59
2022/01/25 08:50:32;;;;;;;18.93;11.83;;;;;;;0.54;100.00;97732.28;5028214;28;102198;-58
2022/01/25 08:52:58;;;;;;;21.53;12.57;;;;;;;0.56;100.00;97730.38;5027921;28;105599;-59
2022/01/25 08:55:26;;;;;;;20.17;13.80;;;;;;;0.84;100.00;97731.81;5027447;27;105790;-59
2022/01/25 08:58:00;;;;;;;18.67;12.03;;;;;;;0.98;100.00;97732.03;5028119;28;103363;-59
2022/01/25 09:00:27;;;;;;;18.67;13.33;;;;;;;0.85;100.00;97730.81;5027832;28;105276;-60
2022/01/25 09:02:55;;;;;;;20.57;13.80;;;;;;;0.83;100.00;97730.97;5030611;28;105263;-60
2022/01/25 09:05:23;;;;;;;20.20;12.87;;;;;;;0.69;100.00;97739.44;5029476;28;103060;-59
2022/01/25 09:08:28;;;;;;;17.33;11.33;;;;;;;0.77;100.00;97733.41;5027105;28;105667;-70
2022/01/25 09:11:00;;;;;;;15.47;10.80;;;;;;;1.11;100.00;97734.19;5028073;28;101778;-59
2022/01/25 09:13:27;;;;;;;15.67;10.47;;;;;;;1.15;100.00;97738.16;5027447;28;105187;-59
2022/01/25 09:15:54;;;;;;;16.83;10.77;;;;;;;1.02;100.00;97735.97;5027344;28;104752;-59
2022/01/25 09:18:37;;;;;;;16.60;10.57;;;;;;;1.04;100.00;97735.81;5027541;28;102281;-59
2022/01/25 09:21:05;;;;;;;14.93;10.37;;;;;;;1.14;100.00;97734.69;5026047;28;105273;-59
2022/01/25 09:23:35;;;;;;;13.60;9.80;;;;;;;1.20;100.00;97731.44;5061176;27;105822;-59
2022/01/25 09:26:03;;;;;;;14.23;9.73;;;;;;;1.52;100.00;97733.28;5031963;28;102151;-59
2022/01/25 09:28:37;;;;;;;15.73;9.70;;;;;;;1.69;100.00;97732.38;5027099;28;105845;-59
2022/01/25 09:31:04;;;;;;;14.23;10.13;;;;;;;1.59;100.00;97736.94;5029436;28;101920;-59
2022/01/25 09:33:31;;;;;;;14.93;10.43;;;;;;;1.55;100.00;97733.81;5029027;27;102645;-59
2022/01/25 09:35:59;;;;;;;18.07;11.10;;;;;;;1.59;100.00;97734.31;5026771;28;105659;-59
2022/01/25 09:38:26;;;;;;;17.03;11.13;;;;;;;1.54;100.00;97747.09;5026257;28;101947;-59
2022/01/25 09:40:56;;;;;;;16.80;11.30;;;;;;;1.65;100.00;97744.16;5025645;28;105416;-59
2022/01/25 09:43:24;;;;;;;15.13;10.53;;;;;;;1.58;100.00;97741.34;5039915;27;105356;-59
2022/01/25 09:45:51;;;;;;;15.73;11.00;;;;;;;1.82;100.00;97743.19;5010798;28;101994;-59
2022/01/25 09:48:28;;;;;;;14.77;10.43;;;;;;;2.11;100.00;97740.88;5019748;28;105763;-59
2022/01/25 09:50:58;;;;;;;14.23;9.83;;;;;;;2.12;100.00;97742.50;5027210;28;102225;-59
2022/01/25 09:53:25;;;;;;;15.20;9.97;;;;;;;2.13;100.00;97742.34;5028135;28;105869;-59
2022/01/25 09:55:54;;;;;;;13.23;9.77;;;;;;;1.97;100.00;97738.94;5026306;28;105820;-58
2022/01/25 09:58:28;;;;;;;13.93;9.47;;;;;;;2.23;100.00;97739.53;5028277;28;101994;-59
2022/01/25 10:00:57;;;;;;;13.13;9.57;;;;;;;2.18;100.00;97747.94;5027953;28;105417;-58
2022/01/25 10:03:30;;;;;;;15.10;10.20;;;;;;;2.34;100.00;97740.03;5027434;28;105344;-60
2022/01/25 10:06:00;;;;;;;13.60;9.90;;;;;;;2.04;100.00;97739.91;5027864;28;101964;-59
2022/01/25 10:08:56;;;;;;;13.70;9.33;;;;;;;2.38;100.00;97743.97;5034622;28;106604;-59
2022/01/25 10:11:31;;;;;;;13.50;8.90;;;;;;;2.52;100.00;97737.22;5031939;28;101785;-59
2022/01/25 10:14:08;;;;;;;13.07;9.77;;;;;;;2.52;100.00;97732.78;5031768;28;105573;-59
2022/01/25 10:16:38;;;;;;;14.73;10.00;;;;;;;2.57;100.00;97730.47;5051515;27;104478;-59
2022/01/25 10:19:07;;;;;;;14.10;9.67;;;;;;;2.45;100.00;97730.97;5010731;28;101992;-59
2022/01/25 10:21:35;;;;;;;12.53;9.03;;;;;;;2.34;100.00;97736.56;5011438;28;105184;-60
2022/01/25 10:24:08;;;;;;;13.53;9.60;;;;;;;2.57;100.00;97725.22;5010897;28;105019;-59
2022/01/25 10:26:39;;;;;;;13.80;9.90;;;;;;;2.87;100.00;97719.22;5050892;27;102166;-60
2022/01/25 10:29:29;;;;;;;14.20;10.27;;;;;;;2.79;100.00;97719.25;5015289;28;105566;-59
2022/01/25 10:31:58;;;;;;;13.43;9.50;;;;;;;2.94;100.00;97714.91;5033625;28;104995;-59
2022/01/25 10:34:27;;;;;;;12.17;8.90;;;;;;;3.12;100.00;97712.84;5032904;27;102882;-59
2022/01/25 10:36:56;;;;;;;12.43;8.87;;;;;;;3.22;100.00;97708.22;5030378;28;105743;-59
2022/01/25 10:39:47;;;;;;;11.13;8.53;;;;;;;3.30;100.00;97707.34;5031155;28;101836;-59
2022/01/25 10:42:22;;;;;;;13.17;9.33;;;;;;;3.15;100.00;97712.53;5030919;28;104961;-59
2022/01/25 10:44:55;;;;;;;12.53;9.67;;;;;;;3.23;100.00;97711.66;5030330;28;106266;-60
2022/01/25 10:47:40;;;;;;;12.40;8.93;;;;;;;3.13;100.00;97708.44;5031069;28;101893;-59
2022/01/25 10:50:17;;;;;;;12.50;9.40;;;;;;;3.44;100.00;97704.78;5031122;28;105420;-60
2022/01/25 10:52:45;;;;;;;11.80;8.80;;;;;;;3.72;100.00;97694.59;5030172;28;105552;-60
2022/01/25 10:55:14;;;;;;;13.87;9.60;;;;;;;3.81;100.00;97688.25;5031944;28;101967;-60
2022/01/25 10:57:57;;;;;;;10.77;8.47;;;;;;;4.10;100.00;97690.97;5030179;28;105836;-59
2022/01/25 11:00:32;;;;;;;12.30;8.40;;;;;;;4.42;100.00;97682.78;5031192;28;102229;-59
2022/01/25 11:02:59;;;;;;;12.27;6.90;;;;;;;4.49;100.00;97686.31;5030658;28;105504;-59
2022/01/25 11:05:27;;;;;;;11.97;7.37;;;;;;;4.69;100.00;97680.31;5031629;28;102653;-59
2022/01/25 11:07:54;;;;;;;8.77;7.13;;;;;;;5.13;100.00;97682.91;5030557;28;102133;-59
2022/01/25 11:10:22;;;;;;;8.20;6.47;;;;;;;5.02;100.00;97686.03;5030832;28;105196;-59
2022/01/25 11:13:03;;;;;;;12.80;7.33;;;;;;;5.03;100.00;97671.84;5030156;28;105433;-59
2022/01/25 11:15:32;;;;;;;7.57;6.20;;;;;;;5.28;100.00;97670.50;5032224;28;101879;-59
2022/01/25 11:18:03;;;;;;;9.57;6.53;;;;;;;5.40;100.00;97671.66;5033337;27;105371;-59
2022/01/25 11:20:31;;;;;;;9.63;6.53;;;;;;;5.43;100.00;97660.72;5029874;28;102007;-58
2022/01/25 11:23:00;;;;;;;9.30;6.43;;;;;;;5.72;100.00;97663.25;5030350;28;104778;-61
2022/01/25 11:25:29;;;;;;;9.17;5.90;;;;;;;5.66;100.00;97658.72;5029870;28;105200;-59
2022/01/25 11:28:14;;;;;;;10.33;6.33;;;;;;;5.83;100.00;97660.16;5030522;28;101827;-59
2022/01/25 11:30:44;;;;;;;8.40;5.97;;;;;;;5.99;100.00;97660.69;5031758;28;102943;-57
2022/01/25 11:33:15;;;;;;;7.33;5.60;;;;;;;5.95;100.00;97650.69;5029748;28;105088;-59
2022/01/25 11:35:43;;;;;;;9.53;5.53;;;;;;;6.05;100.00;97649.34;5029999;28;101955;-59
2022/01/25 11:38:33;;;;;;;8.80;6.13;;;;;;;6.19;100.00;97653.72;5030118;28;105634;-59
2022/01/25 11:41:21;;;;;;;4.90;4.00;;;;;;;6.57;100.00;97647.06;5034541;28;103120;-59
2022/01/25 11:44:07;;;;;;;3.87;3.40;;;;;;;6.61;100.00;97645.66;5030477;28;102521;-59
2022/01/25 11:46:35;;;;;;;4.67;3.70;;;;;;;6.58;100.00;97640.78;5029483;28;106035;-59
2022/01/25 11:49:16;;;;;;;4.93;3.90;;;;;;;6.70;100.00;97638.41;5029973;28;101886;-60
2022/01/25 11:51:44;;;;;;;4.90;3.43;;;;;;;6.79;100.00;97626.66;5030090;28;105186;-59
2022/01/25 11:54:11;;;;;;;8.53;5.17;;;;;;;6.23;100.00;97635.69;5029638;28;105361;-59
2022/01/25 11:56:39;;;;;;;4.40;3.17;;;;;;;6.56;100.00;97618.19;5030041;28;101910;-60
2022/01/25 11:59:11;;;;;;;4.73;3.93;;;;;;;6.58;100.00;97621.44;5030001;28;104060;-59
2022/01/25 12:01:40;;;;;;;5.87;4.23;;;;;;;6.55;100.00;97613.94;5032608;28;105361;-59
2022/01/25 12:04:10;;;;;;;3.87;3.47;;;;;;;6.56;100.00;97605.81;5030113;28;105122;-59
2022/01/25 12:06:43;;;;;;;3.50;3.20;;;;;;;6.71;100.00;97603.03;5029311;28;105116;-59
2022/01/25 12:09:18;;;;;;;4.37;3.83;;;;;;;6.41;100.00;97599.81;5029970;28;102036;-59
2022/01/25 12:12:14;;;;;;;4.30;3.90;;;;;;;6.71;100.00;97595.09;5029628;28;105584;-59
2022/01/25 12:14:44;;;;;;;5.37;4.07;;;;;;;7.15;100.00;97601.56;5029280;28;105242;-59
2022/01/25 12:17:15;;;;;;;4.67;3.67;;;;;;;6.86;100.00;97596.59;5030775;28;102034;-59
2022/01/25 12:19:47;;;;;;;5.97;4.50;;;;;;;7.17;100.00;97596.06;5010736;28;102356;-59
2022/01/25 12:22:17;;;;;;;5.50;3.53;;;;;;;7.58;100.00;97594.13;5029046;28;108114;-59
2022/01/25 12:24:58;;;;;;;4.67;3.87;;;;;;;7.90;100.00;97595.97;5033056;28;101889;-59
2022/01/25 12:27:49;;;;;;;3.77;3.47;;;;;;;8.20;100.00;97591.88;5028882;28;105502;-59
2022/01/25 12:30:21;;;;;;;3.63;3.33;;;;;;;8.71;100.00;97593.59;5028730;28;101813;-59
2022/01/25 12:33:00;;;;;;;5.13;3.40;;;;;;;8.28;100.00;97591.69;5030827;27;102259;-59
2022/01/25 12:35:40;;;;;;;6.93;3.60;;;;;;;8.24;100.00;97577.22;5029044;28;105594;-59
2022/01/25 12:38:41;;;;;;;7.17;3.90;;;;;;;8.28;100.00;97584.53;5029091;28;101864;-58
2022/01/25 12:41:12;;;;;;;5.37;3.90;;;;;;;8.81;100.00;97579.91;5029104;28;105082;-59
2022/01/25 12:43:41;;;;;;;6.53;3.90;;;;;;;8.23;99.04;97578.25;5027075;28;105668;-60
2022/01/25 12:46:12;;;;;;;6.10;5.17;;;;;;;8.60;100.00;97578.34;5062635;27;101834;-59
2022/01/25 12:49:15;;;;;;;7.33;4.63;;;;;;;8.48;100.00;97579.19;5031608;28;105042;-59
2022/01/25 12:51:45;;;;;;;8.37;5.23;;;;;;;7.81;100.00;97576.00;5030815;27;101806;-59
2022/01/25 12:54:16;;;;;;;5.30;4.53;;;;;;;8.27;100.00;97574.13;5028947;28;105651;-59
2022/01/25 12:56:47;;;;;;;7.80;7.00;;;;;;;8.20;100.00;97570.69;5029583;28;102798;-59
2022/01/25 12:59:19;;;;;;;8.90;7.37;;;;;;;7.87;100.00;97570.72;5028904;28;101962;-58